チャーチル の空港の天気 - METARとTAF

チャーチル空港 ( CYYQ / YYQ ) - カナダ マニトバ州Churchill
飛行場実況気象(Metar)
観測時間11/27 01:00 CST (11/27 07:00 UTC)
風向・風速東 5m/s
視程4850m
天気現象弱い雪
全天の4割程度の雲 雲底高度 400m
全天を覆う雲 雲底高度 4570m
気温-4℃
湿度80%
気圧1012.6hPa
METARCYYQ 270700Z 09009KT 3SM R33/4000VP6000FT/D -SN SCT013 OVC150 M04/M07 A2989 RMK SC4AC4 VIS VRB 2-4 SLP126
過去の天気等 Google飛行場航空写真 Wunderground天気予報

過去48時間のMETAR

飛行場予報(TAF)
発表時間: 11/26 23:40 CST (11/27 05:40 UTC)
予報対象時間: 27日0時 CST ~ 28日0時 CST
風向・風速不定 2m/s
視程10km以上
全天の4割程度の雲 雲底高度 460m
全天を覆う雲 雲底高度 2740m
27日0時 CST ~ 27日2時 CST に一時的に
視程3220m
天気現象弱いしゅう雪
全天の8割程度の雲 雲底高度 460m
全天を覆う雲 雲底高度 1830m
27日2時 CST から
風向・風速不定 2m/s
視程10km以上
全天の4割程度の雲 雲底高度 610m
27日2時 CST ~ 27日8時 CST に一時的に
視程8050m
天気現象弱い雪
全天の8割程度の雲 雲底高度 610m
27日8時 CST から
風向・風速東北東 5m/s
視程10km以上
全天の8割程度の雲 雲底高度 910m
27日15時 CST から
風向・風速東 5m/s
視程10km以上
全天の4割程度の雲 雲底高度 610m
全天の8割程度の雲 雲底高度 910m
27日15時 CST ~ 27日21時 CST に一時的に
視程8050m
天気現象弱い雪
全天の8割程度の雲 雲底高度 610m
全天を覆う雲 雲底高度 910m
TAF CYYQ 270540Z 2706/2806 VRB03KT P6SM SCT015 OVC090
TEMPO 2706/2708 2SM -SHSN BKN015 OVC060
FM270800 VRB03KT P6SM SCT020
TEMPO 2708/2714 5SM -SN BKN020
FM271400 07010KT P6SM BKN030
FM272100 10010KT P6SM SCT020 BKN030
TEMPO 2721/2803 5SM -SN BKN020 OVC030 RMK NXT FCST BY 271200Z